createdAt,value
2018-04-01T00:01:56.683Z,98101
2018-04-01T00:03:59.913Z,98094
2018-04-01T00:06:02.604Z,98106
2018-04-01T00:08:05.821Z,98105
2018-04-01T00:10:08.282Z,98104
2018-04-01T00:12:11.476Z,98102
2018-04-01T00:14:13.916Z,98106
2018-04-01T00:16:16.478Z,98110
2018-04-01T00:18:18.942Z,98109
2018-04-01T00:20:21.386Z,98106
2018-04-01T00:22:24.552Z,98107
2018-04-01T00:24:26.971Z,98105
2018-04-01T00:26:29.378Z,98106
2018-04-01T00:28:32.561Z,98117
2018-04-01T00:30:34.985Z,98117
2018-04-01T00:32:37.394Z,98124
2018-04-01T00:34:45.240Z,98118
2018-04-01T00:36:47.676Z,98116
2018-04-01T00:38:50.885Z,98127
2018-04-01T00:40:53.318Z,98127
2018-04-01T00:42:55.761Z,98118
2018-04-01T00:44:58.933Z,98127
2018-04-01T00:47:01.372Z,98122
2018-04-01T00:49:03.885Z,98126
2018-04-01T00:51:06.279Z,98120
2018-04-01T00:53:08.710Z,98116
2018-04-01T00:55:11.113Z,98110
2018-04-01T00:57:13.548Z,98114
2018-04-01T00:59:15.945Z,98109
2018-04-01T01:01:18.357Z,98121
2018-04-01T01:03:22.313Z,98108
2018-04-01T01:05:25.730Z,98114
2018-04-01T01:07:28.916Z,98117
2018-04-01T01:09:31.315Z,98121
2018-04-01T01:11:33.764Z,98127
2018-04-01T01:13:36.204Z,98115
2018-04-01T01:15:39.376Z,98124
2018-04-01T01:17:41.785Z,98120
2018-04-01T01:19:44.749Z,98127
2018-04-01T01:21:47.181Z,98122
2018-04-01T01:23:50.348Z,98132
2018-04-01T01:25:52.748Z,98136
2018-04-01T01:27:55.176Z,98133
2018-04-01T01:29:57.580Z,98142
2018-04-01T01:32:00.776Z,98140
2018-04-01T01:34:05.870Z,98136
2018-04-01T01:36:08.462Z,98131
2018-04-01T01:38:10.885Z,98137
2018-04-01T01:40:13.304Z,98135
2018-04-01T01:42:15.732Z,98141
2018-04-01T01:44:18.140Z,98146
2018-04-01T01:46:20.559Z,98140
2018-04-01T01:48:23.001Z,98140
2018-04-01T01:50:25.601Z,98141
2018-04-01T01:52:28.035Z,98150
2018-04-01T01:54:30.469Z,98147
2018-04-01T01:56:34.353Z,98134
2018-04-01T01:58:36.965Z,98140
2018-04-01T02:00:39.405Z,98145
2018-04-01T02:02:41.802Z,98155
2018-04-01T02:04:44.238Z,98156
2018-04-01T02:06:46.651Z,98152
2018-04-01T02:08:50.828Z,98151
2018-04-01T02:10:53.249Z,98156
2018-04-01T02:15:10.908Z,98160
2018-04-01T02:17:13.323Z,98163
2018-04-01T02:19:16.528Z,98166
2018-04-01T02:21:18.940Z,98162
2018-04-01T02:23:22.114Z,98163
2018-04-01T02:25:24.556Z,98166
2018-04-01T02:27:26.988Z,98160
2018-04-01T02:29:29.421Z,98162
2018-04-01T02:31:32.698Z,98155
2018-04-01T02:33:35.063Z,98158
2018-04-01T02:35:37.498Z,98150
2018-04-01T02:37:40.221Z,98151
2018-04-01T02:39:42.630Z,98157
2018-04-01T02:41:45.069Z,98149
2018-04-01T02:43:47.503Z,98141
2018-04-01T02:45:49.954Z,98150
2018-04-01T02:47:52.391Z,98147
2018-04-01T02:49:54.838Z,98146
2018-04-01T02:51:57.251Z,98141
2018-04-01T02:54:00.435Z,98131
2018-04-01T02:56:02.872Z,98137
2018-04-01T02:58:05.312Z,98134
2018-04-01T03:00:07.727Z,98145
2018-04-01T03:02:10.929Z,98140
2018-04-01T03:04:14.103Z,98131
2018-04-01T03:06:16.505Z,98142
2018-04-01T03:08:19.771Z,98137
2018-04-01T03:10:22.206Z,98144
2018-04-01T03:12:24.621Z,98132
2018-04-01T03:14:28.065Z,98144
2018-04-01T03:16:30.487Z,98144
2018-04-01T03:18:32.916Z,98139
2018-04-01T03:20:36.089Z,98147
2018-04-01T03:22:38.494Z,98136
2018-04-01T03:24:42.765Z,98144
2018-04-01T03:26:45.963Z,98132
2018-04-01T03:28:48.556Z,98148
2018-04-01T03:30:51.764Z,98141
2018-04-01T03:32:54.932Z,98146
2018-04-01T03:34:57.338Z,98148
2018-04-01T03:36:59.778Z,98151
2018-04-01T03:39:02.188Z,98141
2018-04-01T03:41:04.592Z,98145
2018-04-01T03:43:07.041Z,98142
2018-04-01T03:45:10.917Z,98147
2018-04-01T03:47:13.351Z,98143
2018-04-01T03:49:16.521Z,98148
2018-04-01T03:51:18.929Z,98146
2018-04-01T03:53:22.144Z,98148
2018-04-01T03:55:26.230Z,98147
2018-04-01T03:57:29.300Z,98148
2018-04-01T03:59:33.577Z,98146
2018-04-01T04:01:36.990Z,98155
2018-04-01T04:03:39.488Z,98153
2018-04-01T04:05:42.141Z,98150
2018-04-01T04:07:45.750Z,98157
2018-04-01T04:09:49.718Z,98163
2018-04-01T04:11:53.515Z,98165
2018-04-01T04:13:57.257Z,98164
2018-04-01T04:16:01.410Z,98162
2018-04-01T04:18:04.717Z,98162
2018-04-01T04:20:07.673Z,98165
2018-04-01T04:22:11.202Z,98166
2018-04-01T04:24:13.646Z,98171
2018-04-01T04:26:16.044Z,98176
2018-04-01T04:28:18.444Z,98166
2018-04-01T04:30:21.648Z,98170
2018-04-01T04:32:24.830Z,98166
2018-04-01T04:34:27.248Z,98174
2018-04-01T04:36:31.584Z,98176
2018-04-01T04:38:34.764Z,98173
2018-04-01T04:40:37.201Z,98179
2018-04-01T04:42:39.604Z,98163
2018-04-01T04:44:42.009Z,98182
2018-04-01T04:46:44.466Z,98182
2018-04-01T04:48:47.632Z,98181
2018-04-01T04:50:50.032Z,98180
2018-04-01T04:52:52.464Z,98194
2018-04-01T04:54:54.875Z,98181
2018-04-01T04:56:57.309Z,98188
2018-04-01T04:59:00.489Z,98179
2018-04-01T05:01:02.902Z,98206
2018-04-01T05:03:05.335Z,98221
2018-04-01T05:05:07.744Z,98219
2018-04-01T05:07:10.146Z,98227
2018-04-01T05:09:12.608Z,98233
2018-04-01T05:11:15.002Z,98231
2018-04-01T05:13:17.424Z,98242
2018-04-01T05:15:20.040Z,98237
2018-04-01T05:17:22.479Z,98235
2018-04-01T05:19:24.921Z,98250
2018-04-01T05:21:29.297Z,98250
2018-04-01T05:23:33.203Z,98240
2018-04-01T05:25:37.681Z,98231
2018-04-01T05:27:41.815Z,98245
2018-04-01T05:29:45.240Z,98249
2018-04-01T05:31:47.805Z,98251
2018-04-01T05:33:50.225Z,98254
2018-04-01T05:35:54.372Z,98254
2018-04-01T05:37:57.636Z,98266
2018-04-01T05:40:00.769Z,98267
2018-04-01T05:42:03.658Z,98270
2018-04-01T05:44:06.292Z,98273
2018-04-01T05:46:10.475Z,98271
2018-04-01T05:48:14.760Z,98273
2018-04-01T05:50:19.140Z,98274
2018-04-01T05:52:23.666Z,98268
2018-04-01T05:54:28.381Z,98283
2018-04-01T05:56:32.482Z,98273
2018-04-01T05:58:36.292Z,98285
2018-04-01T06:00:40.121Z,98282
2018-04-01T06:02:44.165Z,98282
2018-04-01T06:04:46.724Z,98291
2018-04-01T06:06:49.137Z,98299
2018-04-01T06:08:52.651Z,98296
2018-04-01T06:10:55.489Z,98288
2018-04-01T06:13:00.498Z,98299
2018-04-01T06:15:04.528Z,98292
2018-04-01T06:17:08.661Z,98290
2018-04-01T06:19:11.701Z,98295
2018-04-01T06:21:14.741Z,98305
2018-04-01T06:23:18.215Z,98300
2018-04-01T06:25:20.765Z,98300
2018-04-01T06:27:25.096Z,98302
2018-04-01T06:29:29.187Z,98311
2018-04-01T06:31:33.289Z,98302
2018-04-01T06:33:36.057Z,98310
2018-04-01T06:35:38.455Z,98311
2018-04-01T06:37:40.860Z,98305
2018-04-01T06:39:43.291Z,98311
2018-04-01T06:41:46.460Z,98321
2018-04-01T06:43:48.892Z,98316
2018-04-01T06:45:52.530Z,98318
2018-04-01T06:47:56.788Z,98321
2018-04-01T06:50:00.834Z,98319
2018-04-01T06:52:04.880Z,98319
2018-04-01T06:54:08.842Z,98328
2018-04-01T06:56:12.772Z,98336
2018-04-01T06:58:16.133Z,98341
2018-04-01T07:00:20.181Z,98338
2018-04-01T07:02:23.106Z,98342
2018-04-01T07:04:26.280Z,98343
2018-04-01T07:06:29.481Z,98349
2018-04-01T07:08:31.907Z,98348
2018-04-01T07:10:35.104Z,98347
2018-04-01T07:12:38.341Z,98354
2018-04-01T07:14:40.771Z,98357
2018-04-01T07:16:43.171Z,98361
2018-04-01T07:18:45.638Z,98364
2018-04-01T07:20:48.065Z,98365
2018-04-01T07:22:50.492Z,98359
2018-04-01T07:24:52.963Z,98375
2018-04-01T07:26:56.159Z,98376
2018-04-01T07:28:59.345Z,98370
2018-04-01T07:31:01.862Z,98371
2018-04-01T07:33:04.305Z,98374
2018-04-01T07:35:06.744Z,98383
2018-04-01T07:37:09.169Z,98375
2018-04-01T07:39:11.873Z,98385
2018-04-01T07:41:14.396Z,98385
2018-04-01T07:43:16.837Z,98388
2018-04-01T07:45:20.032Z,98391
2018-04-01T07:47:23.005Z,98383
2018-04-01T07:49:26.379Z,98394
2018-04-01T07:51:29.163Z,98382
2018-04-01T07:53:32.357Z,98380
2018-04-01T07:55:35.802Z,98390
2018-04-01T07:57:38.243Z,98386
2018-04-01T07:59:40.757Z,98394
2018-04-01T08:01:43.184Z,98400
2018-04-01T08:03:46.214Z,98394
2018-04-01T08:05:48.695Z,98404
2018-04-01T08:07:51.136Z,98403
2018-04-01T08:09:53.558Z,98405
2018-04-01T08:11:55.989Z,98402
2018-04-01T08:13:58.413Z,98405
2018-04-01T08:16:03.180Z,98416
2018-04-01T08:18:06.403Z,98410
2018-04-01T08:20:08.833Z,98423
2018-04-01T08:22:11.272Z,98419
2018-04-01T08:24:13.699Z,98414
2018-04-01T08:26:16.146Z,98418
2018-04-01T08:28:19.332Z,98432
2018-04-01T08:30:21.764Z,98420
2018-04-01T08:32:24.196Z,98420
2018-04-01T08:34:26.952Z,98428
2018-04-01T08:36:29.793Z,98432
2018-04-01T08:38:32.313Z,98429
2018-04-01T08:40:34.759Z,98430
2018-04-01T08:42:37.636Z,98431
2018-04-01T08:44:40.108Z,98430
2018-04-01T08:46:44.356Z,98439
2018-04-01T08:48:47.387Z,98434
2018-04-01T08:50:49.817Z,98444
2018-04-01T08:52:52.550Z,98443
2018-04-01T08:54:55.074Z,98445
2018-04-01T08:56:57.547Z,98444
2018-04-01T08:59:00.237Z,98440
2018-04-01T09:01:02.685Z,98445
2018-04-01T09:03:05.129Z,98448
2018-04-01T09:05:07.725Z,98449
2018-04-01T09:07:10.701Z,98449
2018-04-01T09:09:14.036Z,98445
2018-04-01T09:11:16.709Z,98456
2018-04-01T09:13:19.166Z,98451
2018-04-01T09:15:21.590Z,98455
2018-04-01T09:17:24.790Z,98459
2018-04-01T09:19:29.581Z,98461
2018-04-01T09:21:32.105Z,98470
2018-04-01T09:23:35.049Z,98472
2018-04-01T09:25:38.456Z,98479
2018-04-01T09:27:41.707Z,98484
2018-04-01T09:29:44.538Z,98479
2018-04-01T09:31:47.171Z,98488
2018-04-01T09:33:50.880Z,98487
2018-04-01T09:35:56.105Z,98492
2018-04-01T09:37:58.701Z,98490
2018-04-01T09:40:02.115Z,98494
2018-04-01T09:42:06.910Z,98504
2018-04-01T09:44:10.278Z,98498
2018-04-01T09:46:12.711Z,98506
2018-04-01T09:48:15.279Z,98507
2018-04-01T09:50:18.512Z,98508
2018-04-01T09:52:21.562Z,98508
2018-04-01T09:54:24.019Z,98507
2018-04-01T09:56:26.462Z,98510
2018-04-01T09:58:29.069Z,98504
2018-04-01T10:00:36.296Z,98519
2018-04-01T10:02:39.497Z,98512
2018-04-01T10:04:42.714Z,98521
2018-04-01T10:06:45.936Z,98525
2018-04-01T10:08:50.911Z,98526
2018-04-01T10:10:54.105Z,98530
2018-04-01T10:12:57.886Z,98530
2018-04-01T10:15:01.827Z,98541
2018-04-01T10:17:05.032Z,98543
2018-04-01T10:19:09.888Z,98542
2018-04-01T10:21:13.062Z,98548
2018-04-01T10:23:19.298Z,98551
2018-04-01T10:25:26.004Z,98552
2018-04-01T10:27:31.002Z,98558
2018-04-01T10:29:37.393Z,98573
2018-04-01T10:31:44.256Z,98573
2018-04-01T10:33:47.576Z,98570
2018-04-01T10:35:52.209Z,98579
2018-04-01T10:37:56.221Z,98585
2018-04-01T10:40:00.182Z,98589
2018-04-01T10:42:03.368Z,98591
2018-04-01T10:44:07.343Z,98593
2018-04-01T10:46:11.626Z,98598
2018-04-01T10:48:15.689Z,98601
2018-04-01T10:50:24.786Z,98608
2018-04-01T10:52:29.466Z,98608
2018-04-01T10:54:31.924Z,98607
2018-04-01T10:56:34.350Z,98621
2018-04-01T10:58:36.787Z,98618
2018-04-01T11:00:39.246Z,98623
2018-04-01T11:02:41.670Z,98619
2018-04-01T11:04:44.107Z,98628
2018-04-01T11:06:47.307Z,98614
2018-04-01T11:08:50.521Z,98613
2018-04-01T11:10:53.718Z,98616
2018-04-01T11:12:56.958Z,98620
2018-04-01T11:14:59.385Z,98623
2018-04-01T11:17:01.863Z,98624
2018-04-01T11:19:04.279Z,98624
2018-04-01T11:21:06.740Z,98621
2018-04-01T11:23:09.203Z,98626
2018-04-01T11:25:12.142Z,98625
2018-04-01T11:27:14.621Z,98632
2018-04-01T11:29:17.077Z,98636
2018-04-01T11:31:19.528Z,98644
2018-04-01T11:33:22.006Z,98646
2018-04-01T11:35:24.434Z,98656
2018-04-01T11:37:26.868Z,98648
2018-04-01T11:39:29.306Z,98651
2018-04-01T11:41:32.677Z,98663
2018-04-01T11:43:35.105Z,98660
2018-04-01T11:45:37.531Z,98662
2018-04-01T11:47:40.774Z,98670
2018-04-01T11:49:43.217Z,98667
2018-04-01T11:51:46.417Z,98674
2018-04-01T11:53:50.358Z,98673
2018-04-01T11:55:52.982Z,98668
2018-04-01T11:57:55.420Z,98681
2018-04-01T11:59:57.848Z,98679
2018-04-01T12:02:01.536Z,98676
2018-04-01T12:04:05.730Z,98679
2018-04-01T12:06:09.834Z,98683
2018-04-01T12:08:13.661Z,98675
2018-04-01T12:10:16.094Z,98691
2018-04-01T12:12:18.516Z,98693
2018-04-01T12:14:21.749Z,98689
2018-04-01T12:16:24.942Z,98700
2018-04-01T12:18:28.155Z,98696
2018-04-01T12:20:31.359Z,98699
2018-04-01T12:22:34.552Z,98699
2018-04-01T12:24:37.745Z,98704
2018-04-01T12:26:40.173Z,98703
2018-04-01T12:28:43.491Z,98703
2018-04-01T12:30:45.956Z,98705
2018-04-01T12:32:48.393Z,98705
2018-04-01T12:34:50.838Z,98696
2018-04-01T12:36:54.208Z,98698
2018-04-01T12:38:56.652Z,98699
2018-04-01T12:40:59.998Z,98707
2018-04-01T12:43:02.440Z,98720
2018-04-01T12:45:04.884Z,98712
2018-04-01T12:47:07.556Z,98708
2018-04-01T12:49:10.754Z,98710
2018-04-01T12:51:15.096Z,98708
2018-04-01T12:53:17.553Z,98722
2018-04-01T12:55:19.997Z,98707
2018-04-01T12:57:22.437Z,98710
2018-04-01T12:59:24.867Z,98717
2018-04-01T13:01:28.064Z,98725
2018-04-01T13:03:31.608Z,98724
2018-04-01T13:05:35.032Z,98725
2018-04-01T13:07:37.468Z,98718
2018-04-01T13:09:39.907Z,98715
2018-04-01T13:11:42.354Z,98721
2018-04-01T13:13:45.560Z,98725
2018-04-01T13:15:48.004Z,98729
2018-04-01T13:17:51.157Z,98734
2018-04-01T13:19:54.290Z,98731
2018-04-01T13:21:56.995Z,98735
2018-04-01T13:23:59.523Z,98735
2018-04-01T13:26:01.978Z,98736
2018-04-01T13:28:05.185Z,98736
2018-04-01T13:30:08.398Z,98748
2018-04-01T13:32:11.602Z,98741
2018-04-01T13:34:15.937Z,98750
2018-04-01T13:36:19.198Z,98754
2018-04-01T13:38:21.637Z,98753
2018-04-01T13:40:24.848Z,98752
2018-04-01T13:42:28.140Z,98751
2018-04-01T13:44:30.596Z,98749
2018-04-01T13:46:33.043Z,98751
2018-04-01T13:48:36.190Z,98761
2018-04-01T13:50:38.669Z,98764
2018-04-01T13:52:41.107Z,98762
2018-04-01T13:54:45.051Z,98771
2018-04-01T13:56:48.268Z,98776
2018-04-01T13:58:51.482Z,98770
2018-04-01T14:00:54.691Z,98781
2018-04-01T14:02:57.147Z,98764
2018-04-01T14:05:00.384Z,98774
2018-04-01T14:07:03.900Z,98798
2018-04-01T14:09:07.130Z,98792
2018-04-01T14:11:10.058Z,98807
2018-04-01T14:13:12.516Z,98799
2018-04-01T14:15:14.967Z,98801
2018-04-01T14:17:17.424Z,98809
2018-04-01T14:19:19.884Z,98802
2018-04-01T14:21:23.109Z,98813
2018-04-01T14:23:25.800Z,98802
2018-04-01T14:25:28.464Z,98806
2018-04-01T14:27:32.431Z,98803
2018-04-01T14:29:34.886Z,98808
2018-04-01T14:31:38.287Z,98809
2018-04-01T14:33:41.501Z,98801
2018-04-01T14:35:43.944Z,98813
2018-04-01T14:37:47.977Z,98816
2018-04-01T14:39:50.412Z,98813
2018-04-01T14:41:52.855Z,98820
2018-04-01T14:43:55.316Z,98826
2018-04-01T14:45:58.600Z,98815
2018-04-01T14:48:01.044Z,98822
2018-04-01T14:50:03.496Z,98822
2018-04-01T14:52:05.940Z,98826
2018-04-01T14:54:08.392Z,98825
2018-04-01T14:56:11.729Z,98827
2018-04-01T14:58:14.977Z,98826
2018-04-01T15:00:17.413Z,98818
2018-04-01T15:02:20.501Z,98828
2018-04-01T15:04:23.729Z,98831
2018-04-01T15:06:26.939Z,98829
2018-04-01T15:08:29.385Z,98831
2018-04-01T15:10:31.832Z,98826
2018-04-01T15:12:34.276Z,98831
2018-04-01T15:14:37.869Z,98822
2018-04-01T15:16:40.970Z,98830
2018-04-01T15:18:43.413Z,98832
2018-04-01T15:20:46.632Z,98830
2018-04-01T15:22:49.868Z,98840
2018-04-01T15:24:52.308Z,98839
2018-04-01T15:26:54.752Z,98838
2018-04-01T15:28:57.203Z,98846
2018-04-01T15:31:00.408Z,98840
2018-04-01T15:33:03.981Z,98848
2018-04-01T15:35:06.437Z,98838
2018-04-01T15:37:08.885Z,98834
2018-04-01T15:39:11.321Z,98826
2018-04-01T15:41:14.520Z,98837
2018-04-01T15:43:16.995Z,98835
2018-04-01T15:45:19.437Z,98834
2018-04-01T15:47:21.922Z,98832
2018-04-01T15:49:25.400Z,98833
2018-04-01T15:51:28.606Z,98838
2018-04-01T15:53:31.061Z,98845
2018-04-01T15:55:33.502Z,98850
2018-04-01T15:57:36.715Z,98839
2018-04-01T15:59:39.928Z,98848
2018-04-01T16:01:43.144Z,98850
2018-04-01T16:03:45.745Z,98850
2018-04-01T16:05:48.234Z,98848
2018-04-01T16:07:50.676Z,98856
2018-04-01T16:09:53.121Z,98839
2018-04-01T16:11:55.563Z,98839
2018-04-01T16:13:58.006Z,98851
2018-04-01T16:16:00.450Z,98851
2018-04-01T16:18:02.930Z,98851
2018-04-01T16:20:06.310Z,98867
2018-04-01T16:22:08.753Z,98863
2018-04-01T16:24:11.195Z,98863
2018-04-01T16:26:13.632Z,98863
2018-04-01T16:28:17.580Z,98869
2018-04-01T16:30:21.055Z,98872
2018-04-01T16:32:23.497Z,98883
2018-04-01T16:34:25.951Z,98882
2018-04-01T16:36:28.589Z,98878
2018-04-01T16:38:31.068Z,98892
2018-04-01T16:40:34.283Z,98891
2018-04-01T16:42:36.734Z,98885
2018-04-01T16:44:39.191Z,98887
2018-04-01T16:46:42.401Z,98895
2018-04-01T16:48:44.842Z,98900
2018-04-01T16:50:48.053Z,98894
2018-04-01T16:52:50.498Z,98902
2018-04-01T16:54:52.946Z,98901
2018-04-01T16:56:56.172Z,98910
2018-04-01T16:58:58.621Z,98911
2018-04-01T17:01:01.085Z,98911
2018-04-01T17:03:03.638Z,98920
2018-04-01T17:05:06.905Z,98914
2018-04-01T17:07:09.345Z,98921
2018-04-01T17:09:12.562Z,98923
2018-04-01T17:11:15.356Z,98920
2018-04-01T17:13:18.566Z,98919
2018-04-01T17:15:21.773Z,98916
2018-04-01T17:17:24.986Z,98914
2018-04-01T17:19:27.422Z,98923
2018-04-01T17:21:29.856Z,98927
2018-04-01T17:23:33.089Z,98928
2018-04-01T17:25:35.553Z,98931
2018-04-01T17:27:38.760Z,98932
2018-04-01T17:29:42.201Z,98934
2018-04-01T17:31:44.668Z,98939
2018-04-01T17:33:48.699Z,98938
2018-04-01T17:35:51.946Z,98943
2018-04-01T17:37:54.402Z,98936
2018-04-01T17:39:57.646Z,98943
2018-04-01T17:42:00.430Z,98942
2018-04-01T17:44:02.882Z,98952
2018-04-01T17:46:06.851Z,98950
2018-04-01T17:48:09.335Z,98951
2018-04-01T17:50:11.779Z,98965
2018-04-01T17:52:14.237Z,98958
2018-04-01T17:54:16.698Z,98962
2018-04-01T17:56:19.908Z,98967
2018-04-01T17:58:22.395Z,98967
2018-04-01T18:00:25.602Z,98971
2018-04-01T18:02:28.858Z,98977
2018-04-01T18:04:31.308Z,98973
2018-04-01T18:06:34.503Z,98976
2018-04-01T18:08:36.953Z,98985
2018-04-01T18:10:39.394Z,98975
2018-04-01T18:12:42.624Z,98985
2018-04-01T18:14:45.081Z,98982
2018-04-01T18:16:47.529Z,98994
2018-04-01T18:18:49.974Z,98987
2018-04-01T18:20:53.179Z,98985
2018-04-01T18:22:56.403Z,98993
2018-04-01T18:24:59.606Z,99008
2018-04-01T18:27:02.878Z,99011
2018-04-01T18:29:05.340Z,99009
2018-04-01T18:31:08.320Z,99008
2018-04-01T18:33:11.522Z,99012
2018-04-01T18:35:14.745Z,99019
2018-04-01T18:37:17.194Z,99031
2018-04-01T18:39:20.640Z,99031
2018-04-01T18:41:23.116Z,99025
2018-04-01T18:43:26.393Z,99022
2018-04-01T18:45:29.955Z,99031
2018-04-01T18:47:33.752Z,99034
2018-04-01T18:49:36.301Z,99040
2018-04-01T18:51:38.772Z,99041
2018-04-01T18:53:41.300Z,99036
2018-04-01T18:55:44.053Z,99040
2018-04-01T18:57:47.334Z,99044
2018-04-01T18:59:51.983Z,99050
2018-04-01T19:01:54.582Z,99049
2018-04-01T19:03:57.025Z,99055
2018-04-01T19:05:59.478Z,99052
2018-04-01T19:08:01.913Z,99061
2018-04-01T19:10:04.350Z,99059
2018-04-01T19:12:06.786Z,99064
2018-04-01T19:14:09.221Z,99066
2018-04-01T19:16:12.407Z,99068
2018-04-01T19:18:15.601Z,99076
2018-04-01T19:20:18.781Z,99063
2018-04-01T19:22:22.737Z,99071
2018-04-01T19:24:25.933Z,99072
2018-04-01T19:26:29.118Z,99082
2018-04-01T19:28:33.060Z,99083
2018-04-01T19:30:36.251Z,99079
2018-04-01T19:32:40.355Z,99090
2018-04-01T19:34:43.831Z,99093
2018-04-01T19:36:48.153Z,99090
2018-04-01T19:38:52.572Z,99092
2018-04-01T19:40:55.785Z,99094
2018-04-01T19:42:59.879Z,99104
2018-04-01T19:45:03.924Z,99105
2018-04-01T19:47:07.364Z,99098
2018-04-01T19:49:10.560Z,99107
2018-04-01T19:51:14.526Z,99107
2018-04-01T19:53:18.516Z,99111
2018-04-01T19:55:23.247Z,99103
2018-04-01T19:57:27.514Z,99100
2018-04-01T19:59:31.006Z,99106
2018-04-01T20:01:34.269Z,99106
2018-04-01T20:03:38.112Z,99107
2018-04-01T20:05:42.085Z,99112
2018-04-01T20:07:45.408Z,99113
2018-04-01T20:09:49.793Z,99113
2018-04-01T20:11:54.178Z,99112
2018-04-01T20:13:57.691Z,99117
2018-04-01T20:16:00.984Z,99115
2018-04-01T20:18:05.030Z,99119
2018-04-01T20:20:08.281Z,99117
2018-04-01T20:22:12.076Z,99105
2018-04-01T20:24:15.251Z,99122
2018-04-01T20:26:18.507Z,99113
2018-04-01T20:28:21.730Z,99121
2018-04-01T20:30:25.707Z,99112
2018-04-01T20:32:28.996Z,99123
2018-04-01T20:34:34.068Z,99117
2018-04-01T20:36:37.408Z,99125
2018-04-01T20:38:40.616Z,99119
2018-04-01T20:40:44.044Z,99119
2018-04-01T20:42:47.272Z,99127
2018-04-01T20:44:50.500Z,99126
2018-04-01T20:46:55.665Z,99120
2018-04-01T20:48:58.846Z,99119
2018-04-01T20:51:02.897Z,99121
2018-04-01T20:53:06.193Z,99125
2018-04-01T20:55:10.235Z,99123
2018-04-01T20:57:15.310Z,99111
2018-04-01T20:59:18.559Z,99112
2018-04-01T21:01:21.807Z,99120
2018-04-01T21:03:24.994Z,99116
2018-04-01T21:05:29.552Z,99134
2018-04-01T21:07:33.509Z,99115
2018-04-01T21:09:36.685Z,99128
2018-04-01T21:11:40.645Z,99128
2018-04-01T21:13:44.051Z,99123
2018-04-01T21:15:47.252Z,99120
2018-04-01T21:17:50.458Z,99135
2018-04-01T21:19:53.625Z,99120
2018-04-01T21:21:56.799Z,99127
2018-04-01T21:23:59.996Z,99122
2018-04-01T21:26:03.173Z,99131
2018-04-01T21:28:07.152Z,99133
2018-04-01T21:30:10.338Z,99137
2018-04-01T21:32:13.525Z,99130
2018-04-01T21:34:17.869Z,99127
2018-04-01T21:36:21.064Z,99135
2018-04-01T21:38:24.476Z,99126
2018-04-01T21:40:28.146Z,99129
2018-04-01T21:42:31.570Z,99136
2018-04-01T21:44:34.769Z,99134
2018-04-01T21:46:37.965Z,99132
2018-04-01T21:48:41.116Z,99133
2018-04-01T21:50:44.308Z,99139
2018-04-01T21:52:47.469Z,99140
2018-04-01T21:54:50.648Z,99135
2018-04-01T21:56:53.853Z,99132
2018-04-01T21:58:58.509Z,99134
2018-04-01T22:01:02.514Z,99135
2018-04-01T22:03:06.739Z,99130
2018-04-01T22:05:11.396Z,99136
2018-04-01T22:07:14.653Z,99134
2018-04-01T22:09:18.460Z,99128
2018-04-01T22:11:21.644Z,99121
2018-04-01T22:13:25.594Z,99134
2018-04-01T22:15:28.846Z,99133
2018-04-01T22:17:32.046Z,99130
2018-04-01T22:19:35.282Z,99132
2018-04-01T22:21:38.456Z,99133
2018-04-01T22:23:41.638Z,99131
2018-04-01T22:25:44.864Z,99135
2018-04-01T22:27:48.107Z,99126
2018-04-01T22:29:51.293Z,99139
2018-04-01T22:31:55.769Z,99137
2018-04-01T22:33:58.984Z,99129
2018-04-01T22:36:02.972Z,99133
2018-04-01T22:38:06.209Z,99131
2018-04-01T22:40:09.446Z,99129
2018-04-01T22:42:12.638Z,99131
2018-04-01T22:44:15.929Z,99125
2018-04-01T22:46:21.012Z,99127
2018-04-01T22:48:24.993Z,99122
2018-04-01T22:50:29.033Z,99127
2018-04-01T22:52:32.248Z,99116
2018-04-01T22:54:35.451Z,99121
2018-04-01T22:56:39.546Z,99115
2018-04-01T22:58:44.354Z,99118
2018-04-01T23:00:47.533Z,99125
2018-04-01T23:02:51.511Z,99113
2018-04-01T23:04:54.703Z,99109
2018-04-01T23:06:57.885Z,99120
2018-04-01T23:09:01.081Z,99108
2018-04-01T23:11:04.264Z,99113
2018-04-01T23:13:07.463Z,99111
2018-04-01T23:15:10.657Z,99105
2018-04-01T23:17:13.846Z,99113
2018-04-01T23:19:17.827Z,99114
2018-04-01T23:21:21.072Z,99108
2018-04-01T23:23:24.267Z,99101
2018-04-01T23:25:28.256Z,99104
2018-04-01T23:27:31.437Z,99100
2018-04-01T23:29:34.640Z,99105
2018-04-01T23:31:38.608Z,99103
2018-04-01T23:33:41.978Z,99112
2018-04-01T23:35:46.106Z,99108
2018-04-01T23:37:50.138Z,99105
2018-04-01T23:39:54.192Z,99111
2018-04-01T23:41:57.421Z,99113
2018-04-01T23:44:02.212Z,99115
2018-04-01T23:46:05.660Z,99124
2018-04-01T23:48:09.046Z,99115
2018-04-01T23:50:13.903Z,99116
2018-04-01T23:52:17.220Z,99113
2018-04-01T23:54:21.216Z,99115
2018-04-01T23:56:28.894Z,99120
2018-04-01T23:58:32.663Z,99116
